Time;durP1;ratioP1;P1;durP2;ratioP2;P2;SDS_P1;SDS_P2;PMS_P1;PMS_P2;Temp;Humidity;BMP_temperature;BMP_pressure;BME280_temperature;BME280_humidity;BME280_pressure;Samples;Min_cycle;Max_cycle;Signal;HPM_P1;HPM_P2
2022/01/22 00:00:57;;;;;;;10.37;5.10;;;3.00;99.90;;;;;;5096081;28;20055;-81
2022/01/22 00:03:23;;;;;;;12.30;4.83;;;3.00;99.90;;;;;;5097158;28;20141;-81
2022/01/22 00:05:49;;;;;;;13.77;5.50;;;3.00;99.90;;;;;;5113981;28;20046;-81
2022/01/22 00:08:15;;;;;;;11.27;4.43;;;3.00;99.90;;;;;;5097014;28;20073;-82
2022/01/22 00:10:43;;;;;;;15.20;4.83;;;3.00;99.90;;;;;;5096542;28;20027;-81
2022/01/22 00:15:48;;;;;;;11.00;4.80;;;3.00;99.90;;;;;;5114396;28;20027;-81
2022/01/22 00:18:14;;;;;;;12.40;4.60;;;3.00;99.90;;;;;;5114878;28;20457;-82
2022/01/22 00:20:40;;;;;;;12.97;4.50;;;2.90;99.90;;;;;;5096350;28;20023;-79
2022/01/22 00:23:06;;;;;;;14.57;4.93;;;2.90;99.90;;;;;;5096271;28;20059;-79
2022/01/22 00:25:33;;;;;;;11.67;5.00;;;2.90;99.90;;;;;;5096780;28;20073;-80
2022/01/22 00:28:00;;;;;;;7.87;3.77;;;2.90;99.90;;;;;;5096251;28;20023;-80
2022/01/22 00:30:27;;;;;;;9.93;4.83;;;2.90;99.90;;;;;;5096492;28;20464;-80
2022/01/22 00:32:53;;;;;;;17.43;4.57;;;2.90;99.90;;;;;;5095930;28;20024;-80
2022/01/22 00:35:21;;;;;;;13.23;4.80;;;2.90;99.90;;;;;;5114237;28;20456;-79
2022/01/22 00:37:48;;;;;;;9.90;4.50;;;2.90;99.90;;;;;;5113689;28;20558;-79
2022/01/22 00:40:16;;;;;;;14.13;4.50;;;2.90;99.90;;;;;;5096285;28;20027;-80
2022/01/22 00:42:43;;;;;;;10.67;4.23;;;2.80;99.90;;;;;;5095361;28;20024;-79
2022/01/22 00:45:10;;;;;;;10.73;4.13;;;2.80;99.90;;;;;;5113970;28;20483;-80
2022/01/22 00:47:37;;;;;;;11.00;4.07;;;2.90;99.90;;;;;;5113538;28;20489;-79
2022/01/22 00:50:06;;;;;;;12.17;4.90;;;2.80;99.90;;;;;;5096035;28;20093;-80
2022/01/22 00:52:32;;;;;;;11.37;4.50;;;2.80;99.90;;;;;;5096040;28;20024;-80
2022/01/22 00:54:57;;;;;;;11.53;4.30;;;2.70;99.90;;;;;;5095599;28;20119;-80
2022/01/22 00:57:23;;;;;;;11.30;4.40;;;2.70;99.90;;;;;;5114243;28;20023;-80
2022/01/22 00:59:49;;;;;;;10.50;3.80;;;2.70;99.90;;;;;;5095385;28;20072;-80
2022/01/22 01:02:14;;;;;;;11.37;4.60;;;2.70;99.90;;;;;;5113604;28;20022;-80
2022/01/22 01:04:40;;;;;;;8.57;4.30;;;2.70;99.90;;;;;;5113278;28;20024;-79
2022/01/22 01:07:06;;;;;;;12.40;4.40;;;2.70;99.90;;;;;;5095921;28;20116;-81
2022/01/22 01:09:33;;;;;;;10.20;4.70;;;2.70;99.90;;;;;;5113766;28;20031;-80
2022/01/22 01:12:03;;;;;;;7.20;4.23;;;2.70;99.90;;;;;;5113574;28;20011;-80
2022/01/22 01:14:39;;;;;;;11.37;4.57;;;2.70;99.90;;;;;;5096078;28;20080;-80
2022/01/22 01:35:57;;;;;;;9.60;4.80;;;2.80;99.90;;;;;;5108825;28;20461;-80
2022/01/22 01:38:24;;;;;;;13.00;4.83;;;2.90;99.90;;;;;;5113620;28;20035;-80
2022/01/22 01:41:03;;;;;;;16.03;5.63;;;2.90;99.90;;;;;;5095037;28;20047;-80
2022/01/22 01:43:34;;;;;;;14.70;5.57;;;2.90;99.90;;;;;;5095697;28;20468;-80
2022/01/22 01:45:59;;;;;;;11.73;5.23;;;2.90;99.90;;;;;;5113554;28;20467;-80
2022/01/22 01:48:29;;;;;;;17.03;5.13;;;2.80;99.90;;;;;;5095744;28;20089;-80
2022/01/22 01:50:57;;;;;;;14.63;5.13;;;2.90;99.90;;;;;;5094851;28;20024;-80
2022/01/22 01:53:44;;;;;;;10.20;5.70;;;2.90;99.90;;;;;;5095064;28;20028;-80
2022/01/22 01:58:55;;;;;;;11.07;5.27;;;2.80;99.90;;;;;;5112775;28;20229;-80
2022/01/22 02:01:21;;;;;;;13.10;5.63;;;2.90;99.90;;;;;;5095766;28;20023;-80
2022/01/22 02:03:47;;;;;;;14.20;6.00;;;2.80;99.90;;;;;;5116503;28;20039;-79
2022/01/22 02:06:13;;;;;;;15.67;5.50;;;2.90;99.90;;;;;;5098328;28;20072;-79
2022/01/22 02:08:40;;;;;;;12.57;5.10;;;2.90;99.90;;;;;;5098546;28;20035;-80
2022/01/22 02:11:06;;;;;;;16.40;5.13;;;2.90;99.90;;;;;;5099103;28;20038;-80
2022/01/22 02:24:46;;;;;;;17.03;6.10;;;2.90;99.90;;;;;;5115997;28;20510;-80
2022/01/22 02:27:12;;;;;;;14.60;6.00;;;2.90;99.90;;;;;;5098796;28;20024;-80
2022/01/22 02:29:37;;;;;;;17.07;6.10;;;2.90;99.90;;;;;;5098478;28;20412;-79
2022/01/22 02:34:55;;;;;;;14.87;5.63;;;2.80;99.90;;;;;;5110290;28;20016;-81
2022/01/22 02:37:23;;;;;;;18.27;6.00;;;2.90;99.90;;;;;;5094101;28;20035;-80
2022/01/22 02:40:04;;;;;;;17.70;6.30;;;2.80;99.90;;;;;;5098079;28;20125;-80
2022/01/22 02:42:32;;;;;;;15.97;6.60;;;2.90;99.90;;;;;;5098730;28;20036;-80
2022/01/22 02:44:58;;;;;;;13.37;5.63;;;2.80;99.90;;;;;;5115737;28;20034;-80
2022/01/22 02:47:24;;;;;;;13.37;6.37;;;2.90;99.90;;;;;;5098698;28;20028;-80
2022/01/22 02:49:50;;;;;;;12.97;5.90;;;2.90;99.90;;;;;;5115780;28;20099;-80
2022/01/22 02:52:17;;;;;;;13.37;6.23;;;2.90;99.90;;;;;;5116715;28;20020;-80
2022/01/22 02:54:44;;;;;;;17.50;6.70;;;2.90;99.90;;;;;;5097934;28;20034;-80
2022/01/22 02:57:11;;;;;;;12.87;6.53;;;2.90;99.90;;;;;;5098268;28;20084;-80
2022/01/22 02:59:38;;;;;;;18.23;7.20;;;2.90;99.90;;;;;;5115801;28;20549;-79
2022/01/22 03:02:04;;;;;;;17.13;7.00;;;2.90;99.90;;;;;;5097998;28;20024;-79
2022/01/22 03:04:31;;;;;;;13.87;6.30;;;2.90;99.90;;;;;;5111377;28;20023;-81
2022/01/22 03:06:56;;;;;;;16.90;7.53;;;2.90;99.90;;;;;;5089534;28;20136;-81
2022/01/22 03:09:28;;;;;;;17.93;6.93;;;2.90;99.90;;;;;;5098159;28;20460;-81
2022/01/22 03:20:22;;;;;;;15.93;6.43;;;2.90;99.90;;;;;;5099800;28;20108;-79
2022/01/22 03:27:59;;;;;;;17.03;6.73;;;2.90;99.90;;;;;;5099547;28;20414;-79
2022/01/22 03:30:25;;;;;;;17.80;6.80;;;2.90;99.90;;;;;;5097462;28;20130;-80
2022/01/22 03:32:54;;;;;;;15.47;6.47;;;2.80;99.90;;;;;;5096922;28;20020;-80
2022/01/22 03:37:53;;;;;;;14.60;6.40;;;2.80;99.90;;;;;;5115022;28;20028;-80
2022/01/22 03:40:22;;;;;;;13.53;6.50;;;2.80;99.90;;;;;;5097564;28;20046;-80
2022/01/22 03:42:49;;;;;;;16.50;6.67;;;2.80;99.90;;;;;;5096653;28;20031;-79
2022/01/22 03:45:15;;;;;;;11.23;5.30;;;2.80;99.90;;;;;;5096747;28;20440;-79
2022/01/22 03:47:41;;;;;;;17.23;5.90;;;2.80;99.90;;;;;;5096548;28;20035;-78
2022/01/22 03:50:09;;;;;;;17.50;6.53;;;2.80;99.90;;;;;;5115179;28;20309;-79
2022/01/22 03:52:35;;;;;;;16.40;5.93;;;2.80;99.90;;;;;;5114978;28;20102;-78
2022/01/22 03:55:02;;;;;;;17.40;6.37;;;2.80;99.90;;;;;;5114983;28;20023;-80
2022/01/22 03:57:28;;;;;;;16.50;6.03;;;2.80;99.90;;;;;;5115155;28;20019;-80
2022/01/22 03:59:55;;;;;;;15.13;6.33;;;2.90;99.90;;;;;;5096337;28;20075;-80
2022/01/22 04:03:10;;;;;;;14.90;6.57;;;2.80;99.90;;;;;;5097040;28;20465;-81
2022/01/22 04:05:25;;;;;;;17.67;6.77;;;2.80;99.90;;;;;;5113430;28;20043;-80
2022/01/22 04:10:35;;;;;;;12.60;5.50;;;2.90;99.90;;;;;;5114295;28;20063;-78
2022/01/22 04:13:05;;;;;;;18.23;5.87;;;2.90;99.90;;;;;;5114757;28;20445;-80
2022/01/22 04:15:35;;;;;;;17.80;6.57;;;2.90;99.90;;;;;;5114770;28;20489;-80
2022/01/22 04:26:53;;;;;;;17.13;6.47;;;3.00;99.90;;;;;;5100337;28;20081;-81
2022/01/22 04:29:05;;;;;;;15.30;6.20;;;3.00;99.90;;;;;;5110893;28;20044;-80
2022/01/22 04:31:30;;;;;;;14.37;6.20;;;3.00;99.90;;;;;;5096198;28;20024;-80
2022/01/22 04:33:56;;;;;;;15.30;6.43;;;3.00;99.90;;;;;;5095868;28;20046;-81
2022/01/22 04:36:22;;;;;;;15.43;7.20;;;3.10;99.90;;;;;;5083342;28;20110;-81
2022/01/22 04:38:48;;;;;;;15.60;5.83;;;3.10;99.90;;;;;;5095816;28;20040;-81
2022/01/22 04:41:13;;;;;;;14.53;6.20;;;3.10;99.90;;;;;;5095856;28;20024;-79
2022/01/22 04:43:41;;;;;;;15.70;6.13;;;3.10;99.90;;;;;;5113677;28;20031;-79
2022/01/22 04:46:34;;;;;;;13.43;6.20;;;3.10;99.90;;;;;;5095875;28;20015;-79
2022/01/22 04:49:12;;;;;;;15.10;5.93;;;3.10;99.90;;;;;;5113543;28;20040;-79
2022/01/22 04:57:06;;;;;;;13.40;5.83;;;3.10;99.90;;;;;;5114197;28;20049;-79
2022/01/22 04:59:31;;;;;;;13.83;5.87;;;3.10;99.90;;;;;;5095942;28;20027;-80
2022/01/22 05:01:57;;;;;;;11.07;5.80;;;3.10;99.90;;;;;;5113456;28;20094;-80
2022/01/22 05:04:23;;;;;;;12.23;5.60;;;3.10;99.90;;;;;;5095501;28;20023;-80
2022/01/22 05:06:49;;;;;;;12.57;5.77;;;3.10;99.90;;;;;;5113184;28;20023;-80
2022/01/22 05:09:15;;;;;;;17.93;6.00;;;3.10;99.90;;;;;;5095639;28;20468;-80
2022/01/22 05:11:40;;;;;;;12.90;5.73;;;3.10;99.90;;;;;;5093135;28;20028;-80
2022/01/22 05:14:06;;;;;;;18.40;6.23;;;3.10;99.90;;;;;;5096401;28;20023;-80
2022/01/22 05:16:32;;;;;;;14.40;6.50;;;3.10;99.90;;;;;;5096031;28;20421;-80
2022/01/22 05:19:07;;;;;;;21.50;6.70;;;3.10;99.90;;;;;;5095221;28;20408;-81
2022/01/22 05:21:35;;;;;;;12.50;6.30;;;3.10;99.90;;;;;;5113756;28;20058;-80
2022/01/22 05:24:06;;;;;;;14.87;6.07;;;3.10;99.90;;;;;;5095324;28;20023;-80
2022/01/22 05:37:05;;;;;;;16.30;6.27;;;3.10;99.90;;;;;;5114483;28;20035;-80
2022/01/22 05:39:33;;;;;;;11.68;6.38;;;3.10;99.90;;;;;;5099745;28;20045;-80
2022/01/22 05:42:02;;;;;;;15.27;6.00;;;3.20;99.90;;;;;;5099055;28;20118;-79
2022/01/22 05:44:31;;;;;;;15.03;6.53;;;3.10;99.90;;;;;;5099367;28;20036;-80
2022/01/22 05:47:02;;;;;;;17.13;6.50;;;3.10;99.90;;;;;;5098685;28;20031;-79
2022/01/22 05:49:30;;;;;;;19.73;6.60;;;3.10;99.90;;;;;;5117761;28;20039;-79
2022/01/22 05:51:58;;;;;;;13.10;6.67;;;3.10;99.90;;;;;;5099049;28;20114;-79
2022/01/22 05:59:43;;;;;;;14.37;6.33;;;3.20;99.90;;;;;;5116995;28;20034;-79
2022/01/22 06:02:14;;;;;;;13.80;6.07;;;3.20;99.90;;;;;;5099351;28;20027;-80
2022/01/22 06:04:41;;;;;;;18.77;6.83;;;3.20;99.90;;;;;;5098707;28;20488;-79
2022/01/22 06:07:07;;;;;;;13.53;6.43;;;3.20;99.90;;;;;;5117292;28;20027;-80
2022/01/22 06:09:34;;;;;;;14.93;6.20;;;3.20;99.90;;;;;;5117231;28;20036;-80
2022/01/22 06:14:32;;;;;;;15.02;6.75;;;3.20;99.90;;;;;;5117294;28;20473;-80
2022/01/22 06:16:58;;;;;;;16.77;5.77;;;3.20;99.90;;;;;;5098283;28;20046;-80
2022/01/22 06:19:23;;;;;;;14.40;6.80;;;3.20;99.90;;;;;;5099157;28;20387;-81
2022/01/22 06:21:51;;;;;;;16.03;7.30;;;3.20;99.90;;;;;;5116340;28;20030;-80
2022/01/22 06:24:21;;;;;;;15.53;6.50;;;3.20;99.90;;;;;;5098588;28;20016;-80
2022/01/22 06:26:47;;;;;;;16.47;7.17;;;3.20;99.90;;;;;;5098657;28;20078;-80
2022/01/22 06:29:13;;;;;;;17.97;6.50;;;3.20;99.90;;;;;;5098832;28;20039;-80
2022/01/22 06:31:39;;;;;;;17.03;6.63;;;3.20;99.90;;;;;;5116275;28;20099;-80
2022/01/22 06:34:05;;;;;;;15.33;7.03;;;3.30;99.90;;;;;;5098747;28;20034;-81
2022/01/22 06:36:31;;;;;;;16.87;6.90;;;3.20;99.90;;;;;;5098705;28;20470;-81
2022/01/22 06:39:10;;;;;;;17.37;7.40;;;3.30;99.90;;;;;;5098092;28;20024;-80
2022/01/22 06:41:45;;;;;;;14.23;7.40;;;3.30;99.90;;;;;;5098066;28;20020;-78
2022/01/22 06:44:23;;;;;;;18.77;6.90;;;3.30;99.90;;;;;;5098553;28;20054;-80
2022/01/22 06:46:51;;;;;;;15.20;6.60;;;3.30;99.90;;;;;;5097279;28;20426;-81
2022/01/22 06:49:17;;;;;;;12.90;6.10;;;3.30;99.90;;;;;;5098311;28;20450;-81
2022/01/22 06:51:43;;;;;;;19.77;7.87;;;3.30;99.90;;;;;;5098179;28;20019;-80
2022/01/22 06:54:10;;;;;;;23.50;7.80;;;3.30;99.90;;;;;;5098810;28;20500;-81
2022/01/22 06:56:37;;;;;;;19.27;7.47;;;3.30;99.90;;;;;;5097977;28;20084;-80
2022/01/22 06:59:06;;;;;;;16.40;6.70;;;3.30;99.90;;;;;;5098221;28;20034;-81
2022/01/22 07:01:32;;;;;;;18.20;8.07;;;3.30;99.90;;;;;;5097938;28;20034;-79
2022/01/22 07:03:58;;;;;;;14.60;7.10;;;3.30;99.90;;;;;;5097609;28;20031;-79
2022/01/22 07:06:24;;;;;;;18.17;7.60;;;3.30;99.90;;;;;;5113243;28;20110;-80
2022/01/22 07:08:50;;;;;;;19.50;7.63;;;3.30;99.90;;;;;;5096861;28;20114;-79
2022/01/22 07:11:16;;;;;;;18.10;7.30;;;3.40;99.90;;;;;;5115691;28;20049;-79
2022/01/22 07:13:42;;;;;;;19.43;7.50;;;3.40;99.90;;;;;;5116258;27;20087;-79
2022/01/22 07:16:08;;;;;;;17.47;7.40;;;3.40;99.90;;;;;;5100593;27;20023;-80
2022/01/22 07:18:34;;;;;;;18.53;7.63;;;3.40;99.90;;;;;;5105963;28;20396;-83
2022/01/22 07:21:08;;;;;;;19.23;7.37;;;3.40;99.90;;;;;;5098788;27;20083;-85
2022/01/22 07:26:00;;;;;;;20.53;7.63;;;3.40;99.90;;;;;;5123100;27;20126;-85
2022/01/22 07:28:26;;;;;;;18.00;8.00;;;3.50;99.90;;;;;;5102979;28;20106;-85
2022/01/22 07:30:52;;;;;;;17.53;8.03;;;3.50;99.90;;;;;;5103436;27;20189;-85
2022/01/22 07:33:20;;;;;;;18.80;8.03;;;3.50;99.90;;;;;;5102291;27;20509;-85
2022/01/22 07:35:46;;;;;;;23.80;8.33;;;3.50;99.90;;;;;;5083628;28;20032;-77
2022/01/22 07:38:11;;;;;;;20.47;7.83;;;3.50;99.90;;;;;;5126195;27;20024;-78
2022/01/22 07:40:38;;;;;;;18.07;7.80;;;3.50;99.90;;;;;;5085336;28;20086;-77
2022/01/22 07:43:04;;;;;;;16.80;8.00;;;3.50;99.90;;;;;;5107537;28;20020;-78
2022/01/22 07:45:30;;;;;;;20.73;7.97;;;3.60;99.90;;;;;;5096935;28;20142;-78
2022/01/22 07:47:55;;;;;;;17.40;8.27;;;3.60;99.90;;;;;;5079626;28;20249;-78
2022/01/22 07:50:21;;;;;;;17.07;7.97;;;3.60;99.90;;;;;;5097062;28;20035;-78
2022/01/22 07:52:47;;;;;;;21.47;7.97;;;3.60;99.90;;;;;;5096397;28;20035;-78
2022/01/22 07:55:13;;;;;;;16.87;7.97;;;3.60;99.90;;;;;;5096632;28;20019;-78
2022/01/22 07:57:39;;;;;;;19.80;8.50;;;3.60;99.90;;;;;;5096222;28;20032;-77
2022/01/22 08:00:06;;;;;;;22.70;8.37;;;3.60;99.90;;;;;;5095201;28;20026;-78
2022/01/22 08:02:32;;;;;;;21.10;8.90;;;3.70;99.90;;;;;;5114670;28;20027;-78
2022/01/22 08:04:57;;;;;;;22.23;8.23;;;3.70;99.90;;;;;;5090370;28;20031;-80
2022/01/22 08:07:23;;;;;;;24.30;8.77;;;3.70;99.90;;;;;;5096721;28;20030;-79
2022/01/22 08:09:50;;;;;;;18.87;8.27;;;3.70;99.90;;;;;;5114509;27;20056;-78
2022/01/22 08:12:17;;;;;;;19.87;7.87;;;3.70;99.90;;;;;;5096815;28;20459;-79
2022/01/22 08:14:43;;;;;;;17.27;7.57;;;3.80;99.90;;;;;;5095788;28;20024;-77
2022/01/22 08:17:09;;;;;;;17.43;7.47;;;3.80;99.90;;;;;;5096387;28;20553;-78
2022/01/22 08:19:35;;;;;;;20.53;7.60;;;3.80;99.90;;;;;;5114407;28;20043;-81
2022/01/22 08:22:00;;;;;;;16.70;7.20;;;3.90;99.90;;;;;;5095759;28;20555;-79
2022/01/22 08:24:27;;;;;;;20.90;8.10;;;3.90;99.90;;;;;;5113661;28;20126;-80
2022/01/22 08:29:38;;;;;;;16.80;7.37;;;3.90;99.90;;;;;;5113513;28;20047;-78
2022/01/22 08:37:35;;;;;;;15.33;6.83;;;4.00;99.90;;;;;;5113972;28;20039;-77
2022/01/22 08:40:03;;;;;;;20.00;7.50;;;4.00;99.90;;;;;;5095448;28;20122;-77
2022/01/22 08:42:29;;;;;;;14.70;7.23;;;4.00;99.90;;;;;;5095360;28;20460;-77
2022/01/22 08:44:54;;;;;;;15.13;7.60;;;4.00;99.90;;;;;;5094733;28;20030;-77
2022/01/22 08:47:21;;;;;;;14.97;7.10;;;4.00;99.90;;;;;;5112757;28;20028;-78
2022/01/22 08:49:47;;;;;;;17.97;7.20;;;4.00;99.90;;;;;;5120534;27;20027;-78
2022/01/22 08:52:15;;;;;;;15.87;6.83;;;4.00;99.90;;;;;;5099469;28;20026;-78
2022/01/22 08:54:42;;;;;;;18.73;7.60;;;4.10;99.90;;;;;;5120427;27;20106;-78
2022/01/22 08:57:08;;;;;;;20.50;7.30;;;4.10;99.90;;;;;;5116018;27;20026;-78
2022/01/22 08:59:33;;;;;;;13.47;6.87;;;4.10;99.90;;;;;;5104862;27;20081;-77
2022/01/22 09:02:00;;;;;;;17.90;8.43;;;4.10;99.90;;;;;;5115120;27;20092;-80
2022/01/22 09:04:26;;;;;;;17.17;7.40;;;4.20;99.90;;;;;;5093276;28;20020;-76
2022/01/22 09:06:52;;;;;;;16.20;7.30;;;4.20;99.90;;;;;;5094190;28;20385;-76
2022/01/22 09:09:18;;;;;;;17.60;6.57;;;4.10;99.90;;;;;;5094452;28;20035;-76
2022/01/22 09:11:45;;;;;;;15.10;7.20;;;4.10;99.90;;;;;;5094071;28;20034;-76
2022/01/22 09:14:14;;;;;;;17.60;7.60;;;4.10;99.90;;;;;;5095067;28;20015;-80
2022/01/22 09:16:40;;;;;;;16.50;7.37;;;4.20;99.90;;;;;;5094742;28;20034;-77
2022/01/22 09:19:10;;;;;;;18.80;7.80;;;4.20;99.90;;;;;;5113240;28;20027;-78
2022/01/22 09:21:39;;;;;;;16.03;7.47;;;4.20;99.90;;;;;;5112825;28;20020;-79
2022/01/22 09:24:15;;;;;;;18.00;6.90;;;4.20;99.90;;;;;;5094828;28;20102;-79
2022/01/22 09:26:42;;;;;;;16.60;6.87;;;4.20;99.90;;;;;;5094259;28;20027;-77
2022/01/22 09:29:08;;;;;;;20.03;7.67;;;4.20;99.90;;;;;;5086236;28;20469;-78
2022/01/22 09:31:34;;;;;;;19.00;6.63;;;4.20;99.90;;;;;;5091668;28;20034;-81
2022/01/22 09:34:01;;;;;;;19.03;6.83;;;4.20;99.90;;;;;;5092172;28;20050;-79
2022/01/22 09:36:28;;;;;;;10.97;6.43;;;4.30;99.90;;;;;;5082604;28;20028;-79
2022/01/22 09:38:54;;;;;;;40.17;16.67;;;4.30;99.90;;;;;;5094193;28;20028;-78
2022/01/22 09:41:22;;;;;;;133.00;56.27;;;4.40;99.90;;;;;;5091001;28;20055;-78
2022/01/22 09:43:48;;;;;;;34.73;12.23;;;4.40;99.90;;;;;;5093965;28;20024;-78
2022/01/22 09:46:13;;;;;;;20.73;9.47;;;4.40;99.90;;;;;;5094663;28;20020;-77
2022/01/22 09:48:44;;;;;;;16.03;7.57;;;4.40;99.90;;;;;;5093763;28;20104;-77
2022/01/22 09:51:11;;;;;;;20.40;7.20;;;4.40;99.90;;;;;;5094499;28;20030;-77
2022/01/22 09:53:40;;;;;;;17.07;7.87;;;4.40;99.90;;;;;;5094347;28;20110;-76
2022/01/22 09:56:06;;;;;;;14.13;7.17;;;4.40;99.90;;;;;;5112892;28;20035;-77
2022/01/22 09:58:32;;;;;;;15.30;6.80;;;4.40;99.90;;;;;;5094793;28;20110;-78
2022/01/22 10:01:21;;;;;;;15.70;7.00;;;4.40;99.90;;;;;;5093971;28;20461;-78
2022/01/22 10:03:48;;;;;;;13.93;6.57;;;4.40;99.90;;;;;;5093579;28;20019;-78
2022/01/22 10:06:25;;;;;;;15.50;7.07;;;4.40;99.90;;;;;;5081608;28;20110;-78
2022/01/22 10:08:56;;;;;;;21.07;7.33;;;4.50;99.90;;;;;;5111633;28;20040;-79
2022/01/22 10:11:28;;;;;;;18.13;6.93;;;4.50;99.90;;;;;;5094919;28;20020;-79
2022/01/22 10:13:59;;;;;;;20.33;7.27;;;4.50;99.90;;;;;;5099211;28;20019;-78
2022/01/22 10:16:33;;;;;;;16.73;7.80;;;4.50;99.90;;;;;;5120424;28;20023;-79
2022/01/22 10:19:21;;;;;;;19.07;7.53;;;4.60;99.90;;;;;;5099332;28;20032;-78
2022/01/22 10:22:03;;;;;;;16.63;7.37;;;4.50;99.90;;;;;;5103174;28;20027;-79
2022/01/22 10:24:39;;;;;;;12.98;6.72;;;4.50;99.90;;;;;;5104784;27;20452;-78
2022/01/22 10:27:47;;;;;;;19.13;6.93;;;4.60;99.90;;;;;;5103561;27;20027;-78
2022/01/22 10:30:18;;;;;;;16.73;6.67;;;4.60;99.90;;;;;;5125716;27;20090;-79
2022/01/22 10:32:50;;;;;;;13.10;6.87;;;4.60;99.90;;;;;;5106387;27;20020;-78
2022/01/22 10:35:23;;;;;;;15.35;6.80;;;4.60;99.90;;;;;;5107075;27;20031;-78
2022/01/22 10:37:57;;;;;;;15.53;7.30;;;4.60;99.90;;;;;;5120880;27;20024;-78
2022/01/22 10:40:37;;;;;;;15.10;7.20;;;4.60;99.90;;;;;;5097865;28;20055;-78
2022/01/22 10:46:20;;;;;;;;;;;4.70;99.90;;;;;;5098785;28;20047;-78
2022/01/22 10:49:08;;;;;;;19.00;6.47;;;4.70;99.90;;;;;;5096740;28;20415;-77
2022/01/22 10:51:53;;;;;;;18.53;6.90;;;4.70;99.90;;;;;;5097250;28;20134;-77
2022/01/22 10:54:32;;;;;;;16.60;7.13;;;4.70;99.90;;;;;;5097309;28;20032;-78
2022/01/22 10:57:17;;;;;;;16.37;6.70;;;4.70;99.90;;;;;;5096790;28;20027;-78
2022/01/22 10:59:47;;;;;;;17.63;6.93;;;4.70;99.90;;;;;;5097308;28;20019;-80
2022/01/22 11:02:14;;;;;;;20.53;7.40;;;4.70;99.90;;;;;;5097735;28;20395;-80
2022/01/22 11:04:41;;;;;;;17.90;7.37;;;4.80;99.90;;;;;;5096226;28;20024;-78
2022/01/22 11:07:10;;;;;;;14.27;6.80;;;4.80;99.90;;;;;;5097951;28;20028;-80
2022/01/22 11:09:36;;;;;;;13.07;7.07;;;4.80;99.90;;;;;;5097156;28;20127;-79
2022/01/22 11:12:05;;;;;;;18.23;7.40;;;4.80;99.90;;;;;;5096769;28;20027;-79
2022/01/22 11:14:33;;;;;;;15.20;7.03;;;4.80;99.90;;;;;;5097031;28;20057;-78
2022/01/22 11:16:59;;;;;;;14.70;7.50;;;4.80;99.90;;;;;;5096504;28;20039;-80
2022/01/22 11:19:32;;;;;;;16.67;7.37;;;4.80;99.90;;;;;;5115571;28;20073;-79
2022/01/22 11:22:11;;;;;;;19.23;7.60;;;4.80;99.90;;;;;;5080138;28;20027;-77
2022/01/22 11:24:39;;;;;;;18.57;7.40;;;4.80;99.90;;;;;;5096751;28;20043;-78
2022/01/22 11:27:07;;;;;;;12.93;6.73;;;4.80;99.90;;;;;;5097122;28;20023;-79
2022/01/22 11:29:49;;;;;;;17.87;7.33;;;4.80;99.90;;;;;;5096457;28;20035;-78
2022/01/22 11:32:16;;;;;;;;;;;4.80;99.90;;;;;;5097538;28;20016;-78
2022/01/22 11:34:44;;;;;;;13.50;6.23;;;4.80;99.90;;;;;;5116609;27;19939;-78
2022/01/22 11:37:16;;;;;;;17.23;7.57;;;4.80;99.90;;;;;;5103024;27;20055;-78
2022/01/22 11:39:42;;;;;;;19.87;7.30;;;4.80;99.90;;;;;;5121201;27;20027;-78
2022/01/22 11:42:09;;;;;;;17.80;7.00;;;4.80;99.90;;;;;;5104579;27;20030;-78
2022/01/22 11:44:47;;;;;;;16.97;7.70;;;4.80;99.90;;;;;;5105872;27;20433;-77
2022/01/22 11:47:15;;;;;;;17.47;7.70;;;4.90;99.90;;;;;;5100368;27;20051;-78
2022/01/22 11:50:03;;;;;;;15.07;6.97;;;4.90;99.90;;;;;;5124664;27;20464;-78
2022/01/22 11:52:32;;;;;;;17.83;7.47;;;4.90;99.90;;;;;;5105383;28;20024;-78
2022/01/22 11:55:08;;;;;;;15.93;7.10;;;4.90;99.90;;;;;;5098598;27;20035;-78
2022/01/22 11:57:34;;;;;;;14.70;6.90;;;4.90;99.90;;;;;;5101684;27;20068;-79
2022/01/22 12:00:26;;;;;;;15.97;7.50;;;4.90;99.90;;;;;;5104133;27;20487;-78
2022/01/22 12:03:03;;;;;;;16.60;7.60;;;5.00;99.90;;;;;;5119758;27;20431;-79
2022/01/22 12:05:32;;;;;;;26.17;7.90;;;5.00;99.90;;;;;;5103199;27;20020;-78
2022/01/22 12:08:00;;;;;;;20.83;8.10;;;5.00;99.90;;;;;;5120352;27;20380;-79
2022/01/22 12:10:42;;;;;;;17.43;7.70;;;5.00;99.90;;;;;;5096079;28;20028;-78
2022/01/22 12:16:13;;;;;;;21.73;7.72;;;5.10;99.90;;;;;;5099860;28;20072;-78
2022/01/22 12:18:45;;;;;;;17.53;7.67;;;5.10;99.90;;;;;;5095601;28;20038;-77
2022/01/22 12:21:32;;;;;;;16.33;7.40;;;5.10;99.90;;;;;;5095786;28;20024;-79
2022/01/22 12:23:59;;;;;;;18.10;8.10;;;5.20;99.90;;;;;;5103167;28;20055;-78
2022/01/22 12:26:48;;;;;;;16.47;7.80;;;5.20;99.90;;;;;;5083725;28;20032;-78
2022/01/22 12:29:34;;;;;;;19.57;7.40;;;5.20;99.90;;;;;;5100206;28;20031;-79
2022/01/22 12:32:16;;;;;;;15.40;7.77;;;5.20;99.90;;;;;;5095088;28;20066;-78
2022/01/22 12:34:51;;;;;;;12.07;5.53;;;5.20;99.90;;;;;;5077184;28;20021;-78
2022/01/22 12:37:19;;;;;;;21.50;8.20;;;5.20;99.90;;;;;;5081190;28;20264;-79
2022/01/22 12:39:49;;;;;;;16.73;7.67;;;5.10;99.90;;;;;;5082040;28;20020;-77
2022/01/22 12:42:24;;;;;;;17.50;8.30;;;5.20;99.90;;;;;;5085055;28;20028;-77
2022/01/22 12:44:56;;;;;;;17.43;8.07;;;5.20;99.90;;;;;;5083923;28;20016;-78
2022/01/22 12:47:22;;;;;;;20.70;7.57;;;5.20;99.90;;;;;;5069320;28;20025;-77
2022/01/22 12:50:07;;;;;;;18.43;7.90;;;5.20;99.90;;;;;;5073252;28;20032;-78
2022/01/22 12:52:37;;;;;;;16.47;7.90;;;5.20;99.90;;;;;;5071516;28;20097;-79
2022/01/22 12:55:18;;;;;;;14.70;7.67;;;5.30;99.90;;;;;;5084554;28;20470;-78
2022/01/22 12:57:44;;;;;;;16.67;6.53;;;5.30;99.90;;;;;;5076952;28;20024;-78
2022/01/22 13:00:17;;;;;;;14.83;7.03;;;5.30;99.90;;;;;;5078811;28;20434;-78
2022/01/22 13:02:50;;;;;;;19.93;7.97;;;5.40;99.90;;;;;;5082046;28;20069;-77
2022/01/22 13:05:19;;;;;;;17.30;7.80;;;5.40;99.90;;;;;;5077689;28;20019;-77
2022/01/22 13:07:52;;;;;;;19.47;7.50;;;5.50;99.90;;;;;;5083583;28;20015;-78
2022/01/22 13:10:22;;;;;;;15.57;7.07;;;5.50;99.90;;;;;;5101654;28;20046;-78
2022/01/22 13:12:47;;;;;;;18.10;8.03;;;5.50;99.90;;;;;;5083236;28;20038;-79
2022/01/22 13:15:17;;;;;;;16.47;7.30;;;5.50;99.90;;;;;;5102494;28;20024;-79
2022/01/22 13:17:52;;;;;;;20.03;8.30;;;5.50;99.90;;;;;;5080947;28;20028;-77
2022/01/22 13:20:24;;;;;;;21.67;8.00;;;5.50;99.90;;;;;;5081624;28;20015;-79
2022/01/22 13:22:50;;;;;;;17.77;8.07;;;5.50;99.90;;;;;;5098586;28;20345;-78
2022/01/22 13:25:17;;;;;;;19.37;7.77;;;5.50;99.90;;;;;;5111214;27;20043;-79
2022/01/22 13:27:57;;;;;;;18.07;7.70;;;5.50;99.90;;;;;;5094172;28;20031;-77
2022/01/22 13:30:35;;;;;;;16.37;8.07;;;5.50;99.90;;;;;;5112446;28;20023;-78
2022/01/22 13:33:14;;;;;;;18.17;8.17;;;5.50;99.90;;;;;;5112200;28;20380;-78
2022/01/22 13:49:30;;;;;;;14.00;7.47;;;5.50;99.90;;;;;;5108866;28;20050;-79
2022/01/22 13:52:07;;;;;;;18.10;8.30;;;5.50;99.90;;;;;;5092316;28;20027;-80
2022/01/22 13:54:43;;;;;;;23.90;8.23;;;5.50;99.90;;;;;;5113149;28;20031;-78
2022/01/22 13:57:14;;;;;;;20.23;8.43;;;5.50;99.90;;;;;;5094987;28;20459;-77
2022/01/22 13:59:42;;;;;;;19.90;8.37;;;5.50;99.90;;;;;;5097842;28;20019;-77
2022/01/22 14:04:46;;;;;;;17.27;8.33;;;5.50;99.90;;;;;;5120155;27;20057;-77
2022/01/22 14:07:17;;;;;;;17.83;8.83;;;5.50;99.90;;;;;;5108230;27;20051;-78
2022/01/22 14:10:06;;;;;;;20.83;8.50;;;5.50;99.90;;;;;;5099140;28;20099;-77
2022/01/22 14:12:44;;;;;;;20.93;8.63;;;5.60;99.90;;;;;;5098227;28;20027;-76
2022/01/22 14:15:14;;;;;;;18.97;8.63;;;5.60;99.90;;;;;;5097698;28;20057;-77
2022/01/22 14:17:58;;;;;;;22.43;9.87;;;5.60;99.90;;;;;;5116133;28;20019;-81
2022/01/22 14:20:27;;;;;;;67.10;30.27;;;5.60;99.90;;;;;;5114578;28;20063;-78
2022/01/22 14:22:54;;;;;;;17.30;10.07;;;5.70;99.90;;;;;;5115535;28;20046;-75
2022/01/22 14:25:20;;;;;;;17.40;8.63;;;5.60;99.90;;;;;;5096745;28;20048;-77
2022/01/22 14:28:00;;;;;;;19.97;9.10;;;5.60;99.90;;;;;;5114774;28;20025;-75
2022/01/22 14:30:38;;;;;;;20.17;9.20;;;5.60;99.90;;;;;;5097098;28;20036;-76
2022/01/22 14:33:04;;;;;;;26.67;9.07;;;5.60;99.90;;;;;;5097154;28;20472;-76
2022/01/22 14:35:30;;;;;;;19.13;8.77;;;5.60;99.90;;;;;;5097073;28;20019;-77
2022/01/22 14:37:59;;;;;;;17.93;8.77;;;5.60;99.90;;;;;;5079958;28;20081;-76
2022/01/22 14:45:59;;;;;;;18.80;8.73;;;5.50;99.90;;;;;;5114615;28;20080;-76
2022/01/22 14:48:26;;;;;;;22.33;8.85;;;5.40;99.90;;;;;;5115359;28;20110;-78
2022/01/22 14:50:52;;;;;;;16.87;8.47;;;5.50;99.90;;;;;;5095808;28;20441;-76
2022/01/22 14:53:18;;;;;;;17.77;8.10;;;5.40;99.90;;;;;;5096931;28;20035;-76
2022/01/22 14:55:53;;;;;;;14.70;7.20;;;5.40;99.90;;;;;;5096282;28;20166;-76
2022/01/22 14:58:19;;;;;;;17.43;7.43;;;5.50;99.90;;;;;;5097128;28;20028;-76
2022/01/22 15:00:45;;;;;;;17.30;7.70;;;5.50;99.90;;;;;;5114371;28;20051;-76
2022/01/22 15:03:10;;;;;;;15.80;7.60;;;5.50;99.90;;;;;;5115401;28;20043;-77
2022/01/22 15:05:37;;;;;;;19.03;7.33;;;5.50;99.90;;;;;;5101705;28;20058;-77
2022/01/22 15:08:03;;;;;;;12.63;6.70;;;5.50;99.90;;;;;;5096083;28;20049;-76